Big Rapids, MI

7:05 AM EDT on July 25, 2016 (GMT -0400)
Roben-Hood

Weather History for KRQB - May, 2012

Change the Weather History Date:

Wednesday, May 9, 2012

  Actual Average Record
Temperature  
Mean Temperature 50 °F -  
Max Temperature 59 °F 65 °F 85 °F (1979)
Min Temperature 38 °F 41 °F 26 °F (1983)
Degree Days  
Heating Degree Days 16    
Moisture  
Dew Point 42 °F    
Average Humidity 75    
Maximum Humidity 100    
Minimum Humidity 40    
Precipitation  
Precipitation 0.00 in - - ()
Sea Level Pressure  
Sea Level Pressure 29.83 in    
Wind  
Wind Speed 7 mph (NW)    
Max Wind Speed 20 mph    
Max Gust Speed 24 mph    
Visibility 10 miles    
Events      
Averages and records for this station are not official NWS values.
T = Trace of Precipitation, MM = Missing Value Source: NWS Daily Summary

Daily Weather History Graph

Daily Weather History Graph

Search for Another Location

Airport or City:

Trip Planner

Search our weather history database for the weather conditions in past years. The results will help you decide how hot, cold, wet, or windy it might be!

Date:

Astronomy

May. 09, 2012 Rise Set
Actual Time 6:23 AM EDT 8:54 PM EDT
Civil Twilight 5:50 AM EDT 9:27 PM EDT
Nautical Twilight 5:09 AM EDT 10:07 PM EDT
Astronomical Twilight 4:24 AM EDT 10:54 PM EDT
Moon 12:05 AM EDT (5/9) 9:35 AM EDT (5/9)
Length of Visible Light 15h 36m
Length of Day
14h 31m
Waning Gibbous, 83% of the Moon is Illuminated
May 9
Waning Gibbous
May 12
Last Quarter
May 20
New
May 28
First Quarter
Jun 4
Full

Hourly Weather History & Observations

Time (EDT) Temp. Windchill Dew Point Humidity Pressure Visibility Wind Dir Wind Speed Gust Speed Precip Events Conditions
12:15 AM 52.0 °F - 44.8 °F 76% 29.80 in 10.0 mi West 3.5 mph - N/A   Overcast
12:34 AM 51.8 °F - 45.1 °F 78% 29.79 in 10.0 mi West 8.1 mph - N/A   Overcast
12:55 AM 49.8 °F - 46.8 °F 89% 29.80 in 10.0 mi WNW 3.5 mph - N/A   Overcast
1:15 AM 50.4 °F - 45.5 °F 83% 29.80 in 10.0 mi West 6.9 mph - N/A   Overcast
1:34 AM 49.3 °F - 45.9 °F 88% 29.80 in 10.0 mi NW 4.6 mph - N/A   Overcast
1:55 AM 48.9 °F - 45.1 °F 87% 29.79 in 10.0 mi Calm Calm - N/A   Overcast
2:15 AM 49.1 °F - 45.0 °F 86% 29.79 in 10.0 mi WNW 3.5 mph - N/A   Overcast
2:34 AM 47.1 °F - 44.6 °F 91% 29.79 in 10.0 mi WNW 4.6 mph - N/A   Overcast
2:55 AM 46.0 °F 43.9 °F 45.5 °F 98% 29.79 in 10.0 mi NW 4.6 mph - N/A   Mostly Cloudy
3:15 AM 45.9 °F 44.6 °F 45.3 °F 98% 29.79 in 10.0 mi NW 3.5 mph - N/A   Mostly Cloudy
3:34 AM 46.0 °F 43.9 °F 45.9 °F 99% 29.79 in 10.0 mi NNW 4.6 mph - N/A   Overcast
3:55 AM 46.6 °F - 46.0 °F 98% 29.80 in 10.0 mi NNW 4.6 mph - N/A   Overcast
4:15 AM 46.4 °F 42.4 °F 46.4 °F 100% 29.80 in 10.0 mi NNW 8.1 mph - N/A   Overcast
4:34 AM 46.6 °F - 46.6 °F 100% 29.80 in 10.0 mi NNW 5.8 mph - N/A   Overcast
4:55 AM 46.6 °F - 46.6 °F 100% 29.80 in 10.0 mi NW 6.9 mph - N/A   Overcast
5:14 AM 46.6 °F - 46.6 °F 100% 29.80 in 10.0 mi WNW 3.5 mph - N/A   Overcast
5:34 AM 46.4 °F 44.3 °F 46.4 °F 100% 29.80 in 10.0 mi WNW 4.6 mph - N/A   Overcast
5:55 AM 46.4 °F 44.3 °F 46.4 °F 100% 29.80 in 10.0 mi NW 4.6 mph - N/A   Overcast
6:14 AM 46.4 °F 44.3 °F 46.4 °F 100% 29.80 in 10.0 mi NW 4.6 mph - N/A   Overcast
6:35 AM 46.4 °F 45.2 °F 46.4 °F 100% 29.80 in 10.0 mi NW 3.5 mph - N/A   Overcast
6:55 AM 46.4 °F 43.5 °F 46.4 °F 100% 29.81 in 10.0 mi NW 5.8 mph - N/A   Overcast
7:14 AM 46.8 °F - 46.6 °F 99% 29.81 in 10.0 mi NW 6.9 mph - N/A   Overcast
7:35 AM 47.3 °F - 46.8 °F 98% 29.81 in 10.0 mi NW 8.1 mph - N/A   Overcast
8:15 AM 47.7 °F - 46.2 °F 95% 29.82 in 10.0 mi NW 6.9 mph 16.1 mph N/A   Overcast
8:35 AM 49.5 °F - 45.9 °F 87% 29.82 in 10.0 mi WNW 11.5 mph - N/A   Overcast
8:55 AM 48.4 °F - 43.9 °F 84% 29.82 in 10.0 mi WNW 10.4 mph - N/A   Mostly Cloudy
9:14 AM 49.5 °F - 44.1 °F 82% 29.82 in 10.0 mi NNW 11.5 mph 17.3 mph N/A   Overcast
9:35 AM 50.4 °F - 44.4 °F 80% 29.83 in 10.0 mi NNW 8.1 mph - N/A   Scattered Clouds
9:55 AM 50.7 °F - 44.4 °F 79% 29.83 in 10.0 mi NW 16.1 mph 21.9 mph N/A   Scattered Clouds
10:14 AM 51.8 °F - 45.3 °F 79% 29.83 in 10.0 mi NW 15.0 mph 18.4 mph N/A   Mostly Cloudy
10:35 AM 51.6 °F - 44.8 °F 77% 29.83 in 10.0 mi NNW 10.4 mph - N/A   Overcast
10:55 AM 52.2 °F - 45.1 °F 77% 29.83 in 10.0 mi NNW 13.8 mph - N/A   Overcast
11:14 AM 52.3 °F - 45.5 °F 78% 29.83 in 10.0 mi NNW 9.2 mph - N/A   Overcast
11:35 AM 53.1 °F - 45.5 °F 75% 29.83 in 10.0 mi NNW 12.7 mph - N/A   Overcast
11:55 AM 53.4 °F - 45.3 °F 74% 29.84 in 10.0 mi North 9.2 mph 19.6 mph N/A   Overcast
12:14 PM 53.4 °F - 44.6 °F 72% 29.84 in 10.0 mi NNW 12.7 mph 17.3 mph N/A   Overcast
12:35 PM 54.9 °F - 45.5 °F 71% 29.84 in 10.0 mi NNW 9.2 mph 17.3 mph N/A   Overcast
12:55 PM 54.3 °F - 45.0 °F 71% 29.84 in 10.0 mi NNW 11.5 mph 17.3 mph N/A   Overcast
1:14 PM 55.0 °F - 44.6 °F 68% 29.83 in 10.0 mi WNW 10.4 mph - N/A   Overcast
1:35 PM 54.3 °F - 43.9 °F 68% 29.83 in 10.0 mi NNW 6.9 mph 12.7 mph N/A   Overcast
1:55 PM 56.7 °F - 45.0 °F 65% 29.83 in 10.0 mi North 10.4 mph - N/A   Mostly Cloudy
2:14 PM 56.8 °F - 45.3 °F 65% 29.83 in 10.0 mi NW 10.4 mph 16.1 mph N/A   Overcast
2:35 PM 55.8 °F - 44.8 °F 67% 29.82 in 10.0 mi NW 10.4 mph 17.3 mph N/A   Mostly Cloudy
2:55 PM 59.2 °F - 45.1 °F 60% 29.82 in 10.0 mi NW 15.0 mph 21.9 mph N/A   Mostly Cloudy
3:14 PM 57.2 °F - 43.7 °F 61% 29.82 in 10.0 mi NW 12.7 mph 18.4 mph N/A   Overcast
3:35 PM 57.6 °F - 44.4 °F 62% 29.82 in 10.0 mi NW 16.1 mph 20.7 mph N/A   Overcast
3:54 PM 56.5 °F - 43.3 °F 61% 29.82 in 10.0 mi NNW 12.7 mph 21.9 mph N/A   Overcast
4:15 PM 56.5 °F - 43.0 °F 61% 29.83 in 10.0 mi North 15.0 mph 20.7 mph N/A   Overcast
4:35 PM 56.1 °F - 42.4 °F 60% 29.83 in 10.0 mi NNW 13.8 mph 21.9 mph N/A   Overcast
4:54 PM 56.1 °F - 41.9 °F 59% 29.83 in 10.0 mi North 16.1 mph 20.7 mph N/A   Overcast
5:15 PM 57.2 °F - 40.8 °F 54% 29.83 in 10.0 mi NNW 19.6 mph 24.2 mph N/A   Mostly Cloudy
5:35 PM 57.7 °F - 40.8 °F 53% 29.83 in 10.0 mi NNW 12.7 mph 23.0 mph N/A   Mostly Cloudy
5:54 PM 57.0 °F - 39.2 °F 51% 29.84 in 10.0 mi North 17.3 mph 23.0 mph N/A   Mostly Cloudy
6:15 PM 57.0 °F - 39.0 °F 51% 29.83 in 10.0 mi NNW 12.7 mph 23.0 mph N/A   Scattered Clouds
6:35 PM 56.5 °F - 38.1 °F 50% 29.83 in 10.0 mi North 9.2 mph 19.6 mph N/A   Scattered Clouds
6:54 PM 56.5 °F - 37.0 °F 48% 29.84 in 10.0 mi North 15.0 mph 21.9 mph N/A   Scattered Clouds
7:15 PM 56.3 °F - 36.7 °F 48% 29.84 in 10.0 mi North 10.4 mph - N/A   Clear
7:35 PM 55.2 °F - 36.0 °F 48% 29.84 in 10.0 mi NNW 10.4 mph 17.3 mph N/A   Clear
7:54 PM 54.7 °F - 34.9 °F 47% 29.84 in 10.0 mi North 8.1 mph - N/A   Clear
8:15 PM 53.6 °F - 35.1 °F 50% 29.85 in 10.0 mi North 12.7 mph 18.4 mph N/A   Clear
8:35 PM 52.7 °F - 28.6 °F 40% 29.85 in 10.0 mi North 10.4 mph 18.4 mph N/A   Clear
8:54 PM 50.7 °F - 29.5 °F 44% 29.86 in 10.0 mi NNW 8.1 mph - N/A   Clear
9:15 PM 48.0 °F - 32.0 °F 54% 29.86 in 10.0 mi NNW 6.9 mph - N/A   Clear
9:34 PM 45.9 °F 43.6 °F 33.4 °F 62% 29.87 in 10.0 mi NNW 4.6 mph - N/A   Clear
9:54 PM 43.7 °F 41.1 °F 34.7 °F 71% 29.88 in 10.0 mi NNW 4.6 mph - N/A   Clear
10:15 PM 40.5 °F 37.3 °F 35.8 °F 83% 29.89 in 10.0 mi NNW 4.6 mph - N/A   Clear
10:35 PM 41.9 °F 39.0 °F 33.6 °F 72% 29.89 in 10.0 mi North 4.6 mph - N/A   Clear
10:54 PM 41.5 °F 38.6 °F 33.1 °F 72% 29.89 in 10.0 mi North 4.6 mph - N/A   Clear
11:15 PM 41.5 °F 38.6 °F 32.5 °F 70% 29.90 in 10.0 mi NNW 4.6 mph - N/A   Clear
11:34 PM 41.2 °F 39.2 °F 32.7 °F 72% 29.89 in 10.0 mi NNW 3.5 mph - N/A   Clear
11:55 PM 38.7 °F 36.3 °F 33.8 °F 83% 29.89 in 10.0 mi NW 3.5 mph - N/A   Clear